createdAt,value
2023-01-29T00:00:10.316Z,22.58
2023-01-29T00:05:26.438Z,21.05
2023-01-29T00:10:27.738Z,19.48
2023-01-29T00:15:28.093Z,20.63
2023-01-29T00:20:27.246Z,20.98
2023-01-29T00:25:26.389Z,19.63
2023-01-29T00:30:25.259Z,16.27
2023-01-29T00:35:25.656Z,13.75
2023-01-29T00:40:28.256Z,13.73
2023-01-29T00:45:29.443Z,13.70
2023-01-29T00:50:30.155Z,14.90
2023-01-29T00:55:30.310Z,13.73
2023-01-29T01:00:29.252Z,14.18
2023-01-29T01:05:30.201Z,9.23
2023-01-29T01:10:31.860Z,9.05
2023-01-29T01:15:33.237Z,8.52
2023-01-29T01:20:36.054Z,8.88
2023-01-29T01:25:37.009Z,16.17
2023-01-29T01:30:36.029Z,20.60
2023-01-29T01:35:36.338Z,13.00
2023-01-29T01:40:36.969Z,7.40
2023-01-29T01:45:37.741Z,5.80
2023-01-29T01:50:44.604Z,7.97
2023-01-29T01:55:52.059Z,6.07
2023-01-29T02:00:52.135Z,5.70
2023-01-29T02:06:12.714Z,6.60
2023-01-29T02:11:12.128Z,8.17
2023-01-29T02:16:11.650Z,6.80
2023-01-29T02:21:29.334Z,6.80
2023-01-29T02:26:55.261Z,7.13
2023-01-29T02:32:07.820Z,6.60
2023-01-29T02:37:13.944Z,5.33
2023-01-29T02:42:18.335Z,5.77
2023-01-29T02:47:23.932Z,5.73
2023-01-29T02:52:27.852Z,5.80
2023-01-29T02:57:33.188Z,5.40
2023-01-29T03:02:39.529Z,7.18
2023-01-29T03:07:42.929Z,6.67
2023-01-29T03:12:47.375Z,5.20
2023-01-29T03:17:57.677Z,5.70
2023-01-29T03:23:01.543Z,7.50
2023-01-29T03:28:20.623Z,5.37
2023-01-29T03:33:25.300Z,6.20
2023-01-29T03:38:29.784Z,5.13
2023-01-29T03:43:35.859Z,5.67
2023-01-29T03:48:41.451Z,5.97
2023-01-29T03:53:45.786Z,5.67
2023-01-29T03:58:50.343Z,5.63
2023-01-29T04:03:57.148Z,6.80
2023-01-29T04:09:00.744Z,5.50
2023-01-29T04:13:59.874Z,5.85
2023-01-29T04:19:01.563Z,6.60
2023-01-29T04:24:08.737Z,6.33
2023-01-29T04:29:26.146Z,5.57
2023-01-29T04:34:38.317Z,5.80
2023-01-29T04:39:45.310Z,5.78
2023-01-29T04:44:53.040Z,7.05
2023-01-29T04:50:03.960Z,8.47
2023-01-29T04:55:07.640Z,8.03
2023-01-29T05:00:13.451Z,6.55
2023-01-29T05:05:16.104Z,6.95
2023-01-29T05:10:17.291Z,8.17
2023-01-29T05:15:21.490Z,6.50
2023-01-29T05:20:22.547Z,6.57
2023-01-29T05:25:24.265Z,6.67
2023-01-29T05:30:23.196Z,31.37
2023-01-29T05:35:23.414Z,16.00
2023-01-29T05:40:22.383Z,11.90
2023-01-29T05:45:21.291Z,14.52
2023-01-29T05:50:20.455Z,19.53
2023-01-29T05:55:20.897Z,21.33
2023-01-29T06:00:20.776Z,12.60
2023-01-29T06:05:19.855Z,10.27
2023-01-29T06:10:21.011Z,9.70
2023-01-29T06:15:20.965Z,12.05
2023-01-29T06:20:20.047Z,8.77
2023-01-29T06:25:20.477Z,9.03
2023-01-29T06:30:20.245Z,10.37
2023-01-29T06:35:19.373Z,14.40
2023-01-29T06:40:18.743Z,15.55
2023-01-29T06:45:19.460Z,12.33
2023-01-29T06:50:19.229Z,14.90
2023-01-29T06:55:18.655Z,15.17
2023-01-29T07:00:20.667Z,14.93
2023-01-29T07:05:19.775Z,19.20
2023-01-29T07:10:19.263Z,23.13
2023-01-29T07:15:21.484Z,26.65
2023-01-29T07:20:22.016Z,24.42
2023-01-29T07:25:21.002Z,15.57
2023-01-29T07:30:26.472Z,14.95
2023-01-29T07:35:27.904Z,14.60
2023-01-29T07:40:27.822Z,17.73
2023-01-29T07:45:28.944Z,15.38
2023-01-29T07:50:29.846Z,15.65
2023-01-29T07:55:29.315Z,12.63
2023-01-29T08:00:33.140Z,13.38
2023-01-29T08:05:32.897Z,13.07
2023-01-29T08:10:32.194Z,11.90
2023-01-29T08:15:33.217Z,11.73
2023-01-29T08:20:32.427Z,12.18
2023-01-29T08:25:31.590Z,11.65
2023-01-29T08:30:35.190Z,13.15
2023-01-29T08:35:34.329Z,13.30
2023-01-29T08:40:35.434Z,33.90
2023-01-29T08:45:38.205Z,19.90
2023-01-29T08:50:37.413Z,14.73
2023-01-29T08:55:39.796Z,13.30
2023-01-29T09:00:40.562Z,25.00
2023-01-29T09:05:40.701Z,18.75
2023-01-29T09:10:39.604Z,14.77
2023-01-29T09:15:39.880Z,16.98
2023-01-29T09:20:39.084Z,18.73
2023-01-29T09:25:38.405Z,17.08
2023-01-29T09:30:38.294Z,18.42
2023-01-29T09:35:41.307Z,29.55
2023-01-29T09:40:51.899Z,20.57
2023-01-29T09:45:57.944Z,20.00
2023-01-29T09:51:01.898Z,24.73
2023-01-29T09:56:04.349Z,18.02
2023-01-29T10:01:13.605Z,10.68
2023-01-29T10:06:29.298Z,13.10
2023-01-29T10:11:39.681Z,14.43
2023-01-29T10:16:51.948Z,13.98
2023-01-29T10:22:27.510Z,12.25
2023-01-29T10:27:33.319Z,12.20
2023-01-29T10:32:33.440Z,18.05
2023-01-29T10:37:40.571Z,17.35
2023-01-29T10:42:47.758Z,15.65
2023-01-29T10:48:06.237Z,16.20
2023-01-29T10:53:27.470Z,15.07
2023-01-29T10:58:35.678Z,18.63
2023-01-29T11:03:35.547Z,14.30
2023-01-29T11:08:41.556Z,14.27
2023-01-29T11:13:46.714Z,15.43
2023-01-29T11:18:54.874Z,11.02
2023-01-29T11:24:07.595Z,13.68
2023-01-29T11:29:06.627Z,16.35
2023-01-29T11:34:14.314Z,16.23
2023-01-29T11:39:20.779Z,12.95
2023-01-29T11:44:28.934Z,22.17
2023-01-29T11:49:34.275Z,14.60
2023-01-29T11:54:40.039Z,18.55
2023-01-29T11:59:42.949Z,14.07
2023-01-29T12:04:42.262Z,17.27
2023-01-29T12:09:42.607Z,19.95
2023-01-29T12:14:41.621Z,17.20
2023-01-29T12:19:47.831Z,15.68
2023-01-29T12:24:55.716Z,16.85
2023-01-29T12:30:05.258Z,29.85
2023-01-29T12:35:12.664Z,18.92
2023-01-29T12:40:38.867Z,15.27
2023-01-29T12:45:39.018Z,18.73
2023-01-29T12:50:39.848Z,14.43
2023-01-29T12:55:45.117Z,19.38
2023-01-29T13:00:48.855Z,20.58
2023-01-29T13:05:51.740Z,21.85
2023-01-29T13:10:56.363Z,19.50
2023-01-29T13:16:00.244Z,25.73
2023-01-29T13:21:03.795Z,16.42
2023-01-29T13:26:07.892Z,30.45
2023-01-29T13:31:22.910Z,26.65
2023-01-29T13:36:27.574Z,33.75
2023-01-29T13:41:47.959Z,43.58
2023-01-29T13:46:53.342Z,28.88
2023-01-29T13:51:54.115Z,23.70
2023-01-29T13:57:02.659Z,33.53
2023-01-29T14:02:23.052Z,26.35
2023-01-29T14:07:51.321Z,28.17
2023-01-29T14:12:56.055Z,37.50
2023-01-29T14:18:01.761Z,33.42
2023-01-29T14:23:04.715Z,32.90
2023-01-29T14:28:14.901Z,25.67
2023-01-29T14:33:29.578Z,30.52
2023-01-29T14:38:30.335Z,22.50
2023-01-29T14:43:33.186Z,24.08
2023-01-29T14:48:50.240Z,29.57
2023-01-29T14:54:00.881Z,41.28
2023-01-29T14:59:16.066Z,36.88
2023-01-29T15:04:21.635Z,28.13
2023-01-29T15:09:36.847Z,34.65
2023-01-29T15:14:43.789Z,40.00
2023-01-29T15:19:45.208Z,30.73
2023-01-29T15:24:45.645Z,38.15
2023-01-29T15:29:50.063Z,35.30
2023-01-29T15:34:50.533Z,35.63
2023-01-29T15:39:53.227Z,81.80
2023-01-29T15:44:56.114Z,51.15
2023-01-29T15:49:57.484Z,58.72
2023-01-29T15:55:02.021Z,131.52
2023-01-29T16:00:04.720Z,43.05
2023-01-29T16:05:17.563Z,35.95
2023-01-29T16:10:20.246Z,33.70
2023-01-29T16:15:32.394Z,26.70
2023-01-29T16:20:38.420Z,26.50
2023-01-29T16:25:40.058Z,25.15
2023-01-29T16:30:41.571Z,27.85
2023-01-29T16:35:41.608Z,23.83
2023-01-29T16:40:42.304Z,21.77
2023-01-29T16:45:42.790Z,21.50
2023-01-29T16:50:54.286Z,18.20
2023-01-29T16:55:56.071Z,19.52
2023-01-29T17:01:00.215Z,21.05
2023-01-29T17:06:00.132Z,20.17
2023-01-29T17:10:59.349Z,21.88
2023-01-29T17:16:04.277Z,20.58
2023-01-29T17:21:03.187Z,19.67
2023-01-29T17:26:02.719Z,16.65
2023-01-29T17:31:06.816Z,16.50
2023-01-29T17:36:06.373Z,15.43
2023-01-29T17:41:08.740Z,13.85
2023-01-29T17:46:13.496Z,16.33
2023-01-29T17:51:15.027Z,16.42
2023-01-29T17:56:17.504Z,16.75
2023-01-29T18:01:18.010Z,18.70
2023-01-29T18:06:25.300Z,17.17
2023-01-29T18:11:24.549Z,16.90
2023-01-29T18:16:28.832Z,20.20
2023-01-29T18:21:27.761Z,17.48
2023-01-29T18:26:26.818Z,19.83
2023-01-29T18:31:27.285Z,21.00
2023-01-29T18:36:26.779Z,22.98
2023-01-29T18:41:26.166Z,20.02
2023-01-29T18:46:26.703Z,20.50
2023-01-29T18:51:25.943Z,21.25
2023-01-29T18:56:25.883Z,27.25
2023-01-29T19:01:27.408Z,41.35
2023-01-29T19:06:37.098Z,23.38
2023-01-29T19:11:36.751Z,20.17
2023-01-29T19:16:40.146Z,22.10
2023-01-29T19:21:39.418Z,23.38
2023-01-29T19:26:38.390Z,24.20
2023-01-29T19:31:38.351Z,34.70
2023-01-29T19:36:39.095Z,29.45
2023-01-29T19:41:38.108Z,24.60
2023-01-29T19:46:37.067Z,26.27
2023-01-29T19:51:41.561Z,27.58
2023-01-29T19:56:47.775Z,35.33
2023-01-29T20:01:46.593Z,39.47
2023-01-29T20:06:50.317Z,43.03
2023-01-29T20:11:56.036Z,38.55
2023-01-29T20:17:00.884Z,38.53
2023-01-29T20:22:01.440Z,38.53
2023-01-29T20:27:00.844Z,34.80
2023-01-29T20:32:00.647Z,34.42
2023-01-29T20:37:01.099Z,28.58
2023-01-29T20:42:00.364Z,24.88
2023-01-29T20:47:01.825Z,26.02
2023-01-29T20:52:03.063Z,27.13
2023-01-29T20:57:04.879Z,30.95
2023-01-29T21:02:03.927Z,31.50
2023-01-29T21:07:04.270Z,28.85
2023-01-29T21:12:05.434Z,27.60
2023-01-29T21:17:04.958Z,19.35
2023-01-29T21:22:05.274Z,18.35
2023-01-29T21:27:04.090Z,15.65
2023-01-29T21:32:04.454Z,13.95
2023-01-29T21:37:04.643Z,13.55
2023-01-29T21:42:20.800Z,14.25
2023-01-29T21:47:19.801Z,12.48
2023-01-29T21:52:20.242Z,12.23
2023-01-29T21:57:33.159Z,13.82
2023-01-29T22:02:32.408Z,14.10
2023-01-29T22:07:32.880Z,12.95
2023-01-29T22:12:31.965Z,15.40
2023-01-29T22:17:31.044Z,12.25
2023-01-29T22:22:29.937Z,12.20
2023-01-29T22:27:30.460Z,15.05
2023-01-29T22:32:30.766Z,13.45
2023-01-29T22:37:32.925Z,13.35
2023-01-29T22:42:40.357Z,13.88
2023-01-29T22:47:42.219Z,13.02
2023-01-29T22:52:43.523Z,12.60
2023-01-29T22:57:43.820Z,11.98
2023-01-29T23:02:43.610Z,11.23
2023-01-29T23:07:42.586Z,12.57
2023-01-29T23:12:41.709Z,13.27
2023-01-29T23:17:41.998Z,9.65
2023-01-29T23:22:40.925Z,9.63
2023-01-29T23:27:39.723Z,9.52
2023-01-29T23:32:38.571Z,7.88
2023-01-29T23:37:38.697Z,8.00
2023-01-29T23:42:37.511Z,6.83
2023-01-29T23:47:36.478Z,8.70
2023-01-29T23:52:35.279Z,8.07
2023-01-29T23:57:35.419Z,7.23
